EFKT

Kittila Airport

Kittila, Finland
METAR EFKT 192220Z AUTO 10003KT 6000 -SHRA OVC005 07/07 Q0999
Observed Flight Rules
Sep-19 @ 22:20 UTC (13 minutes ago) Instrument Flight Rules
Wind Visibility Clouds Conditions
100° at 3 knots 6,003 meters
  • Overcast at 500' AGL
  • Light Rain
Temperatures Readings
Current 7°C / 45°F
Dewpoint 7°C / 45°F
Humidity 100%
Altimeter 29.5" Hg
Pressure 999 hPa
Elevation 643
METAR EFKT 192220Z AUTO 10003KT 6000 -SHRA OVC005 07/07 Q0999
Observed Flight Rules
Sep-19 @ 22:20 UTC
(13 minutes ago)
IFR
Wind Visibility
100° at 3 knots 6,003 meters
Clouds
  • Overcast at 500' AGL
Conditions
  • Light Rain
Temperature Dewpoint
7°C / 45°F 7°C / 45°F
Humidity Altimeter Pressure
100% 29.5" Hg 999 hPa